Time;durP1;ratioP1;P1;durP2;ratioP2;P2;SDS_P1;SDS_P2;PMS_P1;PMS_P2;Temp;Humidity;BMP_temperature;BMP_pressure;BME280_temperature;BME280_humidity;BME280_pressure;Samples;Min_cycle;Max_cycle;Signal;HPM_P1;HPM_P2
2023/12/13 00:01:53;;;;;;;48.90;25.10;;;;;;;0.27;100.00;99855.83;88469;281;136993;-65
2023/12/13 00:03:56;;;;;;;45.40;25.10;;;;;;;0.27;100.00;99858.77;88550;274;24055;-66
2023/12/13 00:05:58;;;;;;;45.20;24.30;;;;;;;0.28;100.00;99857.65;88523;281;137551;-65
2023/12/13 00:08:00;;;;;;;45.90;26.40;;;;;;;0.28;100.00;99856.23;88470;281;22822;-64
2023/12/13 00:10:04;;;;;;;53.30;27.90;;;;;;;0.29;100.00;99861.80;88484;280;137514;-66
2023/12/13 00:12:08;;;;;;;45.80;26.40;;;;;;;0.27;100.00;99859.67;88619;281;137200;-68
2023/12/13 00:14:10;;;;;;;38.60;22.80;;;;;;;0.28;100.00;99859.91;88584;275;24018;-66
2023/12/13 00:16:12;;;;;;;45.70;25.30;;;;;;;0.30;100.00;99856.61;88446;277;137343;-65
2023/12/13 00:18:14;;;;;;;47.60;25.40;;;;;;;0.30;100.00;99859.95;88564;281;22773;-72
2023/12/13 00:20:16;;;;;;;50.00;26.00;;;;;;;0.27;100.00;99861.95;88486;281;137274;-65
2023/12/13 00:22:18;;;;;;;48.00;26.10;;;;;;;0.26;100.00;99866.59;88487;273;22533;-68
2023/12/13 00:24:20;;;;;;;44.70;24.30;;;;;;;0.26;100.00;99866.75;88480;281;137393;-67
2023/12/13 00:26:23;;;;;;;42.40;24.20;;;;;;;0.30;100.00;99868.64;88535;280;22527;-65
2023/12/13 00:28:25;;;;;;;49.70;26.80;;;;;;;0.32;100.00;99869.17;88556;273;136990;-65
2023/12/13 00:30:28;;;;;;;34.10;21.50;;;;;;;0.33;100.00;99868.70;88471;280;22661;-62
2023/12/13 00:32:31;;;;;;;49.40;26.40;;;;;;;0.35;100.00;99871.03;88435;279;136573;-65
2023/12/13 00:34:34;;;;;;;45.00;24.20;;;;;;;0.34;100.00;99868.31;88679;281;24064;-66
2023/12/13 00:36:37;;;;;;;43.10;23.80;;;;;;;0.32;100.00;99870.94;88498;277;136825;-64
2023/12/13 00:38:39;;;;;;;45.80;25.70;;;;;;;0.31;100.00;99866.49;88677;273;22550;-64
2023/12/13 00:40:42;;;;;;;44.50;24.10;;;;;;;0.31;100.00;99865.58;88405;278;137044;-65
2023/12/13 00:42:44;;;;;;;41.30;23.70;;;;;;;0.32;100.00;99864.95;88668;273;23727;-66
2023/12/13 00:44:47;;;;;;;44.40;23.70;;;;;;;0.33;100.00;99859.84;88515;281;138364;-68
2023/12/13 00:46:49;;;;;;;57.40;40.30;;;;;;;0.31;100.00;99855.78;88609;273;24243;-70
2023/12/13 00:48:51;;;;;;;48.60;25.30;;;;;;;0.31;100.00;99854.73;88520;281;137016;-66
2023/12/13 00:50:54;;;;;;;51.80;25.70;;;;;;;0.31;100.00;99858.10;88754;281;24191;-66
2023/12/13 00:52:56;;;;;;;43.80;24.80;;;;;;;0.30;100.00;99860.82;88641;277;138183;-69
2023/12/13 00:55:00;;;;;;;45.50;26.20;;;;;;;0.28;100.00;99859.03;88657;280;22547;-67
2023/12/13 00:57:03;;;;;;;45.60;25.50;;;;;;;0.28;100.00;99860.48;88632;280;137211;-65
2023/12/13 00:59:05;;;;;;;51.50;29.20;;;;;;;0.18;100.00;99842.45;88703;281;24014;-65
2023/12/13 01:01:07;;;;;;;51.80;27.90;;;;;;;0.28;100.00;99853.10;88524;281;137832;-68
2023/12/13 01:03:10;;;;;;;49.00;27.80;;;;;;;0.29;100.00;99853.23;88680;273;24090;-64
2023/12/13 01:05:14;;;;;;;45.90;27.30;;;;;;;0.28;100.00;99850.28;88577;281;137228;-69
2023/12/13 01:07:16;;;;;;;45.20;25.60;;;;;;;0.28;100.00;99845.98;88610;277;22534;-66
2023/12/13 01:09:18;;;;;;;47.30;27.00;;;;;;;0.27;100.00;99848.52;88483;281;136917;-68
2023/12/13 01:11:23;;;;;;;47.10;25.60;;;;;;;0.27;100.00;99847.11;88459;283;22537;-68
2023/12/13 01:13:27;;;;;;;43.90;24.50;;;;;;;0.27;100.00;99846.36;88524;280;136861;-65
2023/12/13 01:15:29;;;;;;;45.50;25.60;;;;;;;0.27;100.00;99836.77;88581;282;22543;-65
2023/12/13 01:17:32;;;;;;;45.30;25.20;;;;;;;0.28;100.00;99837.20;88381;282;137039;-66
2023/12/13 01:19:35;;;;;;;44.50;24.40;;;;;;;0.27;100.00;99840.14;88627;280;24050;-72
2023/12/13 01:21:37;;;;;;;40.40;25.20;;;;;;;0.26;100.00;99838.80;88479;277;136787;-65
2023/12/13 01:23:39;;;;;;;44.40;25.30;;;;;;;0.26;100.00;99834.40;88357;275;25248;-66
2023/12/13 01:25:41;;;;;;;46.10;25.40;;;;;;;0.27;100.00;99829.65;88453;280;136861;-65
2023/12/13 01:27:43;;;;;;;49.60;25.80;;;;;;;0.29;100.00;99837.31;88479;280;22539;-65
2023/12/13 01:29:45;;;;;;;55.70;25.70;;;;;;;0.32;100.00;99838.06;88404;273;137040;-66
2023/12/13 01:31:47;;;;;;;52.60;28.70;;;;;;;0.34;100.00;99836.48;88503;275;24064;-66
2023/12/13 01:33:49;;;;;;;73.90;38.60;;;;;;;0.35;100.00;99838.52;88476;281;136899;-64
2023/12/13 01:35:51;;;;;;;79.30;40.90;;;;;;;0.37;100.00;99844.30;88669;281;24025;-68
2023/12/13 01:37:53;;;;;;;90.70;48.40;;;;;;;0.36;100.00;99844.67;88500;281;136899;-66
2023/12/13 01:39:56;;;;;;;91.30;53.30;;;;;;;0.34;100.00;99843.84;88561;273;24054;-71
2023/12/13 01:41:58;;;;;;;80.80;47.80;;;;;;;0.32;100.00;99842.79;88483;273;136874;-66
2023/12/13 01:44:00;;;;;;;93.50;47.90;;;;;;;0.33;100.00;99843.73;88607;277;22537;-65
2023/12/13 01:46:04;;;;;;;89.20;48.70;;;;;;;0.33;100.00;99838.52;88589;273;25059;-65
2023/12/13 01:48:06;;;;;;;79.00;47.20;;;;;;;0.32;100.00;99835.83;88704;273;137173;-64
2023/12/13 01:50:09;;;;;;;74.70;43.20;;;;;;;0.25;100.00;99827.16;88565;273;24020;-65
2023/12/13 01:52:12;;;;;;;76.60;46.10;;;;;;;0.32;100.00;99837.21;88511;280;137423;-66
2023/12/13 01:54:17;;;;;;;69.30;40.30;;;;;;;0.26;100.00;99826.36;88563;273;25322;-64
2023/12/13 01:56:20;;;;;;;65.40;41.40;;;;;;;0.32;100.00;99843.80;88416;282;137284;-67
2023/12/13 01:58:23;;;;;;;65.90;41.60;;;;;;;0.32;100.00;99840.73;88610;282;24978;-65
2023/12/13 02:00:26;;;;;;;61.90;38.20;;;;;;;0.32;100.00;99845.76;88440;281;137017;-66
2023/12/13 02:02:29;;;;;;;60.60;38.20;;;;;;;0.31;100.00;99846.15;88572;281;25233;-74
2023/12/13 02:04:34;;;;;;;65.10;36.90;;;;;;;0.26;100.00;99835.30;88429;278;136882;-65
2023/12/13 02:06:37;;;;;;;54.40;32.20;;;;;;;0.33;100.00;99849.55;88633;273;24055;-65
2023/12/13 02:08:39;;;;;;;50.70;31.00;;;;;;;0.31;100.00;99850.93;88454;282;136711;-68
2023/12/13 02:10:41;;;;;;;51.70;28.00;;;;;;;0.30;100.00;99849.44;88546;280;22534;-64
2023/12/13 02:12:45;;;;;;;47.90;28.30;;;;;;;0.27;100.00;99843.38;88490;273;138548;-66
2023/12/13 02:14:47;;;;;;;49.60;27.20;;;;;;;0.26;100.00;99844.44;88662;273;22643;-68
2023/12/13 02:16:49;;;;;;;47.00;26.70;;;;;;;0.27;100.00;99845.01;88430;281;136757;-68
2023/12/13 02:18:52;;;;;;;51.80;28.50;;;;;;;0.29;100.00;99849.16;88596;280;22534;-67
2023/12/13 02:20:54;;;;;;;48.40;28.70;;;;;;;0.31;100.00;99847.98;88486;281;136895;-66
2023/12/13 02:22:56;;;;;;;51.90;27.70;;;;;;;0.32;100.00;99846.85;88625;281;22780;-66
2023/12/13 02:25:01;;;;;;;47.20;27.40;;;;;;;0.31;100.00;99844.64;88582;280;136966;-68
2023/12/13 02:27:03;;;;;;;61.40;31.80;;;;;;;0.32;100.00;99840.00;88677;277;23501;-67
2023/12/13 02:29:05;;;;;;;56.30;33.50;;;;;;;0.33;100.00;99841.30;88517;281;136989;-66
2023/12/13 02:31:09;;;;;;;71.10;43.10;;;;;;;0.34;100.00;99840.33;88572;281;25203;-67
2023/12/13 02:33:12;;;;;;;76.80;47.50;;;;;;;0.35;100.00;99837.11;88521;277;136834;-68
2023/12/13 02:35:14;;;;;;;66.20;42.30;;;;;;;0.37;100.00;99834.10;88618;278;24017;-62
2023/12/13 02:37:15;;;;;;;71.40;45.10;;;;;;;0.41;100.00;99838.02;88611;274;136938;-61
2023/12/13 02:39:18;;;;;;;68.70;43.60;;;;;;;0.37;100.00;99826.98;88520;283;22935;-66
2023/12/13 02:41:20;;;;;;;68.80;41.60;;;;;;;0.45;100.00;99843.20;88394;281;137103;-65
2023/12/13 02:43:22;;;;;;;68.10;41.50;;;;;;;0.47;100.00;99848.67;88545;281;24170;-67
2023/12/13 02:45:26;;;;;;;69.50;42.00;;;;;;;0.47;100.00;99848.08;88494;280;137080;-67
2023/12/13 02:47:29;;;;;;;63.20;37.90;;;;;;;0.48;100.00;99853.09;88480;275;24067;-64
2023/12/13 02:49:31;;;;;;;68.70;39.20;;;;;;;0.51;100.00;99853.21;88461;277;137192;-66
2023/12/13 02:51:33;;;;;;;61.30;35.00;;;;;;;0.52;100.00;99857.63;88673;280;25217;-65
2023/12/13 02:53:34;;;;;;;58.40;34.00;;;;;;;0.51;100.00;99857.17;88441;280;137712;-68
2023/12/13 02:55:36;;;;;;;55.30;31.70;;;;;;;0.51;100.00;99855.29;88665;280;22535;-66
2023/12/13 02:57:38;;;;;;;50.40;29.50;;;;;;;0.50;100.00;99852.52;88479;273;136948;-67
2023/12/13 02:59:40;;;;;;;50.40;29.80;;;;;;;0.52;100.00;99853.13;88605;277;25083;-74
2023/12/13 03:01:42;;;;;;;60.30;30.90;;;;;;;0.52;100.00;99851.66;88262;279;137132;-68
2023/12/13 03:03:44;;;;;;;50.70;29.20;;;;;;;0.53;100.00;99847.19;88551;275;24050;-68
2023/12/13 03:05:47;;;;;;;46.40;25.10;;;;;;;0.54;100.00;99848.00;88452;280;137026;-69
2023/12/13 03:07:49;;;;;;;45.20;27.40;;;;;;;0.56;100.00;99848.89;88677;281;24164;-67
2023/12/13 03:09:51;;;;;;;55.50;31.30;;;;;;;0.51;100.00;99844.56;88421;273;137071;-68
2023/12/13 03:11:53;;;;;;;61.50;28.90;;;;;;;0.56;100.00;99853.38;88430;274;22640;-67
2023/12/13 03:13:55;;;;;;;49.10;29.70;;;;;;;0.56;100.00;99854.19;88345;278;141374;-66
2023/12/13 03:15:57;;;;;;;50.40;27.10;;;;;;;0.56;100.00;99855.76;88504;274;22537;-67
2023/12/13 03:17:59;;;;;;;48.70;27.80;;;;;;;0.57;100.00;99858.79;88468;274;137022;-69
2023/12/13 03:20:03;;;;;;;54.60;27.80;;;;;;;0.57;100.00;99861.25;88589;275;22542;-69
2023/12/13 03:22:07;;;;;;;52.10;28.00;;;;;;;0.56;100.00;99863.38;88523;281;22533;-69
2023/12/13 03:24:10;;;;;;;;;;;;;;;0.56;100.00;99860.61;88402;282;137080;-66
2023/12/13 03:26:12;;;;;;;59.10;28.70;;;;;;;0.57;100.00;99867.38;88588;273;25252;-62
2023/12/13 03:28:14;;;;;;;57.10;30.40;;;;;;;0.55;100.00;99868.89;88523;277;137344;-67
2023/12/13 03:30:17;;;;;;;54.50;28.60;;;;;;;0.55;100.00;99868.40;88532;273;22890;-68
2023/12/13 03:32:19;;;;;;;46.70;26.60;;;;;;;0.55;100.00;99870.37;88302;281;139462;-66
2023/12/13 03:34:25;;;;;;;46.80;26.70;;;;;;;0.56;100.00;99875.42;88608;274;25328;-68
2023/12/13 03:36:28;;;;;;;45.70;25.70;;;;;;;0.59;100.00;99878.17;88073;281;558895;-67
2023/12/13 03:38:30;;;;;;;48.60;27.50;;;;;;;0.62;100.00;99884.98;88545;279;22537;-69
2023/12/13 03:40:32;;;;;;;51.80;26.80;;;;;;;0.62;100.00;99884.36;88511;273;136878;-67
2023/12/13 03:42:35;;;;;;;52.60;27.90;;;;;;;0.64;100.00;99891.96;88504;277;24054;-65
2023/12/13 03:44:37;;;;;;;46.10;27.20;;;;;;;0.66;100.00;99890.31;88429;277;137155;-67
2023/12/13 03:46:38;;;;;;;49.90;27.10;;;;;;;0.68;100.00;99884.95;88493;279;22605;-66
2023/12/13 03:48:42;;;;;;;48.70;27.80;;;;;;;0.66;100.00;99877.25;88480;274;137053;-68
2023/12/13 03:50:44;;;;;;;52.20;28.10;;;;;;;0.61;100.00;99872.20;88526;273;24014;-69
2023/12/13 03:52:46;;;;;;;46.30;27.40;;;;;;;0.71;100.00;99887.97;88380;273;137076;-68
2023/12/13 03:54:48;;;;;;;48.40;25.90;;;;;;;0.75;100.00;99891.82;88558;278;24054;-68
2023/12/13 03:56:50;;;;;;;49.60;28.20;;;;;;;0.80;100.00;99893.48;88539;273;137257;-68
2023/12/13 03:58:52;;;;;;;47.00;26.60;;;;;;;0.83;100.00;99890.78;88586;281;22544;-67
2023/12/13 04:00:54;;;;;;;56.40;28.80;;;;;;;0.82;100.00;99889.65;88450;277;139647;-67
2023/12/13 04:02:55;;;;;;;47.10;25.90;;;;;;;0.78;100.00;99891.52;88402;275;24835;-67
2023/12/13 04:04:59;;;;;;;51.30;29.00;;;;;;;0.76;100.00;99890.53;88389;275;136687;-71
2023/12/13 04:07:01;;;;;;;49.10;24.20;;;;;;;0.71;100.00;99891.26;88503;273;22543;-66
2023/12/13 04:09:03;;;;;;;52.60;28.20;;;;;;;0.70;100.00;99893.83;88433;274;137101;-66
2023/12/13 04:11:06;;;;;;;57.50;29.60;;;;;;;0.68;100.00;99893.16;88479;283;22618;-66
2023/12/13 04:13:08;;;;;;;51.10;28.20;;;;;;;0.68;100.00;99890.70;88604;280;136982;-66
2023/12/13 04:15:10;;;;;;;59.90;31.10;;;;;;;0.67;100.00;99898.62;88628;280;24015;-65
2023/12/13 04:17:14;;;;;;;59.80;31.60;;;;;;;0.67;100.00;99898.42;88488;277;138486;-69
2023/12/13 04:19:16;;;;;;;53.50;29.30;;;;;;;0.67;100.00;99895.64;88583;273;22539;-68
2023/12/13 04:21:18;;;;;;;57.80;29.20;;;;;;;0.67;100.00;99893.26;88511;273;137777;-67
2023/12/13 04:23:24;;;;;;;50.40;27.20;;;;;;;0.67;100.00;99895.64;88421;275;22547;-66
2023/12/13 04:25:26;;;;;;;50.90;27.10;;;;;;;0.69;100.00;99891.86;88346;282;137214;-68
2023/12/13 04:27:28;;;;;;;61.40;29.90;;;;;;;0.69;100.00;99890.23;88439;275;25172;-67
2023/12/13 04:29:30;;;;;;;56.40;30.20;;;;;;;0.71;100.00;99892.20;88461;281;137104;-67
2023/12/13 04:31:32;;;;;;;52.20;29.40;;;;;;;0.62;100.00;99876.03;88586;277;22533;-69
2023/12/13 04:33:36;;;;;;;55.00;28.30;;;;;;;0.70;100.00;99889.97;88435;273;137356;-67
2023/12/13 04:35:38;;;;;;;56.00;28.90;;;;;;;0.71;100.00;99891.17;88538;277;24054;-67
2023/12/13 04:37:41;;;;;;;58.90;29.10;;;;;;;0.72;100.00;99889.33;88461;280;136269;-67
2023/12/13 04:39:46;;;;;;;62.00;28.60;;;;;;;0.71;100.00;99894.11;88615;281;22596;-69
2023/12/13 04:41:47;;;;;;;56.90;30.10;;;;;;;0.69;100.00;99896.25;88472;273;138441;-66
2023/12/13 04:43:50;;;;;;;58.60;28.70;;;;;;;0.67;100.00;99894.92;88459;273;25252;-72
2023/12/13 04:45:52;;;;;;;55.00;29.40;;;;;;;0.68;100.00;99897.00;88370;281;136821;-65
2023/12/13 04:47:54;;;;;;;61.40;29.40;;;;;;;0.69;100.00;99892.89;88538;281;22544;-69
2023/12/13 04:49:57;;;;;;;56.90;28.10;;;;;;;0.70;100.00;99891.18;88572;281;137932;-64
2023/12/13 04:51:59;;;;;;;55.60;30.50;;;;;;;0.72;100.00;99891.04;88495;275;22570;-64
2023/12/13 04:54:01;;;;;;;55.60;26.50;;;;;;;0.74;100.00;99889.27;88521;281;136367;-65
2023/12/13 04:56:03;;;;;;;52.50;26.30;;;;;;;0.75;100.00;99891.65;88466;274;137213;-62
2023/12/13 04:58:06;;;;;;;57.90;31.70;;;;;;;0.75;100.00;99891.45;88557;281;25177;-67
2023/12/13 05:00:11;;;;;;;58.10;29.00;;;;;;;0.77;100.00;99891.66;88425;273;138514;-67
2023/12/13 05:02:13;;;;;;;53.70;28.60;;;;;;;0.77;100.00;99892.65;88291;273;22534;-69
2023/12/13 05:04:15;;;;;;;52.50;26.10;;;;;;;0.79;100.00;99892.01;88293;281;137360;-67
2023/12/13 05:06:19;;;;;;;58.70;29.20;;;;;;;0.81;100.00;99890.84;88399;273;22545;-66
2023/12/13 05:08:21;;;;;;;59.80;31.70;;;;;;;0.80;100.00;99891.39;88518;273;136975;-66
2023/12/13 05:10:23;;;;;;;51.50;27.60;;;;;;;0.78;100.00;99886.83;88409;277;25335;-64
2023/12/13 05:12:25;;;;;;;60.50;30.00;;;;;;;0.79;100.00;99888.84;88401;275;136368;-66
2023/12/13 05:14:27;;;;;;;67.80;31.00;;;;;;;0.77;100.00;99887.46;88498;273;22535;-66
2023/12/13 05:16:29;;;;;;;59.80;30.10;;;;;;;0.75;100.00;99889.34;88394;281;136941;-65
2023/12/13 05:18:32;;;;;;;58.70;30.20;;;;;;;0.73;100.00;99890.21;88522;273;22537;-69
2023/12/13 05:20:34;;;;;;;55.00;29.10;;;;;;;0.74;100.00;99892.60;88080;276;138409;-68
2023/12/13 05:22:35;;;;;;;61.40;29.10;;;;;;;0.74;100.00;99893.11;88352;277;23646;-68
2023/12/13 05:24:37;;;;;;;60.80;31.00;;;;;;;0.76;100.00;99896.77;88233;277;138345;-67
2023/12/13 05:26:39;;;;;;;57.80;31.30;;;;;;;0.78;100.00;99898.92;88400;277;25366;-66
2023/12/13 05:28:42;;;;;;;63.80;31.50;;;;;;;0.77;100.00;99901.93;88423;281;136716;-67
2023/12/13 05:30:44;;;;;;;55.70;29.10;;;;;;;0.81;100.00;99912.07;88392;281;22621;-68
2023/12/13 05:32:46;;;;;;;57.60;29.30;;;;;;;0.86;100.00;99912.33;88531;275;136866;-68
2023/12/13 05:34:48;;;;;;;58.10;30.30;;;;;;;0.90;100.00;99910.40;88358;281;22540;-65
2023/12/13 05:36:50;;;;;;;61.40;32.50;;;;;;;0.89;100.00;99910.70;88374;275;137180;-67
2023/12/13 05:38:52;;;;;;;58.90;29.50;;;;;;;0.88;100.00;99909.71;88550;273;22954;-70
2023/12/13 05:40:56;;;;;;;59.90;28.40;;;;;;;0.91;100.00;99909.15;88465;280;138371;-72
2023/12/13 05:43:00;;;;;;;58.20;29.70;;;;;;;0.91;100.00;99907.88;88805;275;25309;-76
2023/12/13 05:45:03;;;;;;;66.30;33.50;;;;;;;0.92;100.00;99906.79;89303;279;136778;-72
2023/12/13 05:47:07;;;;;;;61.90;30.50;;;;;;;0.91;100.00;99904.40;88882;274;25239;-71
2023/12/13 05:49:08;;;;;;;57.60;27.80;;;;;;;0.91;100.00;99899.96;88541;273;136928;-73
2023/12/13 05:51:13;;;;;;;64.70;30.20;;;;;;;0.92;100.00;99903.75;88667;277;22541;-72
2023/12/13 05:53:15;;;;;;;50.10;27.00;;;;;;;0.94;100.00;99902.91;88562;273;136720;-71
2023/12/13 05:55:17;;;;;;;58.90;30.10;;;;;;;0.96;100.00;99906.59;88444;277;24061;-72
2023/12/13 05:57:19;;;;;;;57.00;30.00;;;;;;;0.97;100.00;99910.67;88387;273;138089;-72
2023/12/13 05:59:21;;;;;;;57.20;28.60;;;;;;;0.99;100.00;99907.36;88356;279;24313;-73
2023/12/13 06:01:23;;;;;;;50.10;28.30;;;;;;;1.01;100.00;99907.58;88452;273;136854;-71
2023/12/13 06:03:27;;;;;;;50.60;26.50;;;;;;;1.05;100.00;99903.92;88567;274;24049;-71
2023/12/13 06:05:29;;;;;;;61.10;30.20;;;;;;;1.08;100.00;99909.02;88453;274;137011;-68
2023/12/13 06:07:32;;;;;;;54.10;27.20;;;;;;;1.10;100.00;99910.22;88231;275;22537;-68
2023/12/13 06:09:35;;;;;;;46.50;25.00;;;;;;;1.12;100.00;99915.61;88419;273;136901;-68
2023/12/13 06:11:38;;;;;;;52.70;28.50;;;;;;;1.14;100.00;99918.24;88371;280;23368;-70
2023/12/13 06:13:41;;;;;;;49.30;27.80;;;;;;;1.16;100.00;99922.11;88371;273;136870;-69
2023/12/13 06:15:44;;;;;;;56.50;29.40;;;;;;;1.16;100.00;99924.92;88414;273;24054;-65
2023/12/13 06:17:46;;;;;;;53.50;28.10;;;;;;;1.17;100.00;99923.23;88369;277;136758;-68
2023/12/13 06:19:48;;;;;;;54.80;28.80;;;;;;;1.14;100.00;99921.77;88312;273;22928;-70
2023/12/13 06:21:50;;;;;;;54.50;27.70;;;;;;;1.13;100.00;99920.60;88355;274;138471;-71
2023/12/13 06:23:55;;;;;;;66.40;33.60;;;;;;;1.13;100.00;99920.95;88432;273;23974;-69
2023/12/13 06:25:57;;;;;;;53.60;28.40;;;;;;;1.13;100.00;99925.52;88226;273;136656;-69
2023/12/13 06:27:59;;;;;;;66.30;32.40;;;;;;;1.12;100.00;99927.02;88499;273;22573;-70
2023/12/13 06:30:01;;;;;;;57.00;31.10;;;;;;;1.11;100.00;99927.51;88378;273;136709;-71
2023/12/13 06:32:04;;;;;;;54.70;30.90;;;;;;;1.11;100.00;99923.65;88300;273;137250;-67
2023/12/13 06:34:06;;;;;;;53.30;29.20;;;;;;;1.13;100.00;99924.48;88511;280;25080;-64
2023/12/13 06:36:09;;;;;;;56.10;30.90;;;;;;;1.16;100.00;99932.27;88165;275;136852;-69
2023/12/13 06:38:12;;;;;;;54.00;28.80;;;;;;;1.18;100.00;99927.05;88447;273;22542;-65
2023/12/13 06:40:14;;;;;;;61.60;29.50;;;;;;;1.13;100.00;99930.08;88306;273;137445;-68
2023/12/13 06:42:17;;;;;;;58.20;29.90;;;;;;;1.17;100.00;99935.36;88510;272;24170;-71
2023/12/13 06:44:19;;;;;;;57.60;28.40;;;;;;;1.18;100.00;99929.84;88428;273;137612;-69
2023/12/13 06:46:22;;;;;;;54.60;27.70;;;;;;;1.18;100.00;99925.61;88382;273;22561;-71
2023/12/13 06:48:24;;;;;;;58.10;30.20;;;;;;;1.18;100.00;99927.02;88376;277;137049;-73
2023/12/13 06:50:26;;;;;;;58.20;29.60;;;;;;;1.18;100.00;99931.77;88297;275;22540;-73
2023/12/13 06:52:28;;;;;;;60.80;31.00;;;;;;;1.17;100.00;99927.66;88294;273;136791;-73
2023/12/13 06:54:31;;;;;;;54.50;29.00;;;;;;;1.17;100.00;99928.33;88317;280;24075;-72
2023/12/13 06:56:33;;;;;;;55.40;30.30;;;;;;;1.19;100.00;99930.99;88330;273;137020;-70
2023/12/13 06:58:35;;;;;;;57.80;30.40;;;;;;;1.16;100.00;99933.69;88508;273;23980;-72
2023/12/13 07:00:37;;;;;;;47.70;26.60;;;;;;;1.16;100.00;99935.10;88269;273;136982;-70
2023/12/13 07:02:39;;;;;;;55.50;29.70;;;;;;;1.15;100.00;99938.47;88461;272;22546;-71
2023/12/13 07:04:43;;;;;;;59.90;30.30;;;;;;;1.16;100.00;99939.95;88435;273;136837;-71
2023/12/13 07:06:46;;;;;;;54.10;28.90;;;;;;;1.18;100.00;99939.98;88545;280;26213;-63
2023/12/13 07:08:48;;;;;;;54.30;29.50;;;;;;;1.21;100.00;99939.57;88381;273;137691;-70
2023/12/13 07:10:50;;;;;;;52.50;29.40;;;;;;;1.25;100.00;99933.05;88533;272;22526;-69
2023/12/13 07:12:52;;;;;;;49.90;27.30;;;;;;;1.30;100.00;99935.40;88393;274;136733;-72
2023/12/13 07:14:56;;;;;;;49.60;29.60;;;;;;;1.33;100.00;99940.52;88498;277;26181;-72
2023/12/13 07:16:58;;;;;;;53.50;29.10;;;;;;;1.36;100.00;99941.15;88394;273;138174;-70
2023/12/13 07:19:00;;;;;;;54.20;29.50;;;;;;;1.38;100.00;99943.98;88296;280;25239;-70
2023/12/13 07:21:03;;;;;;;59.00;30.10;;;;;;;1.41;100.00;99944.23;88277;276;136837;-69
2023/12/13 07:23:05;;;;;;;55.10;30.50;;;;;;;1.46;100.00;99939.19;88367;275;22534;-71
2023/12/13 07:25:08;;;;;;;59.20;29.60;;;;;;;1.49;100.00;99941.73;88650;273;139301;-70
2023/12/13 07:27:11;;;;;;;57.00;32.00;;;;;;;1.50;100.00;99943.71;88465;274;22607;-74
2023/12/13 07:29:13;;;;;;;56.80;32.70;;;;;;;1.47;100.00;99946.63;88204;273;138419;-70
2023/12/13 07:31:15;;;;;;;53.80;29.70;;;;;;;1.49;100.00;99947.84;88336;273;22645;-73
2023/12/13 07:33:17;;;;;;;61.10;32.60;;;;;;;1.51;100.00;99944.35;88336;273;137824;-71
2023/12/13 07:35:19;;;;;;;55.60;29.90;;;;;;;1.54;100.00;99948.11;88361;273;23985;-72
2023/12/13 07:39:35;;;;;;;55.30;28.90;;;;;;;1.58;100.00;99953.02;86698;303;602701;-69
2023/12/13 07:41:37;;;;;;;54.80;30.20;;;;;;;1.63;100.00;99953.45;87876;283;136682;-72
2023/12/13 07:43:39;;;;;;;56.80;32.30;;;;;;;1.64;100.00;99957.66;87733;284;25223;-71
2023/12/13 07:45:43;;;;;;;64.30;34.80;;;;;;;1.62;100.00;99959.30;87796;287;136152;-68
2023/12/13 07:47:46;;;;;;;57.00;30.80;;;;;;;1.60;100.00;99956.11;87872;284;24763;-70
2023/12/13 07:50:08;;;;;;;59.30;31.50;;;;;;;1.66;100.00;99960.17;87744;282;24033;-70
2023/12/13 07:52:12;;;;;;;59.10;31.60;;;;;;;1.69;100.00;99960.02;87961;284;137993;-71
2023/12/13 07:54:16;;;;;;;59.90;33.10;;;;;;;1.72;100.00;99955.70;87440;282;22689;-71
2023/12/13 07:56:18;;;;;;;57.10;33.20;;;;;;;1.73;100.00;99953.23;87945;284;136611;-71
2023/12/13 07:58:28;;;;;;;52.60;30.70;;;;;;;1.75;100.00;99955.13;88153;279;22536;-72
2023/12/13 08:00:30;;;;;;;58.80;32.60;;;;;;;1.78;100.00;99955.58;87969;279;136647;-71
2023/12/13 08:02:33;;;;;;;62.10;33.00;;;;;;;1.79;100.00;99951.78;87964;288;22928;-71
2023/12/13 08:04:44;;;;;;;65.50;33.80;;;;;;;1.77;100.00;99948.64;87875;283;137954;-74
2023/12/13 08:06:46;;;;;;;57.30;31.80;;;;;;;1.74;100.00;99945.26;88093;280;22553;-68
2023/12/13 08:08:51;;;;;;;58.10;33.30;;;;;;;1.71;100.00;99941.86;88188;283;136507;-70
2023/12/13 08:10:53;;;;;;;62.50;33.80;;;;;;;1.67;100.00;99937.27;88533;277;22556;-72
2023/12/13 08:12:55;;;;;;;56.10;33.30;;;;;;;1.67;100.00;99936.98;88117;281;136427;-70
2023/12/13 08:14:57;;;;;;;53.00;31.60;;;;;;;1.68;100.00;99933.73;88301;275;25146;-74
2023/12/13 08:17:02;;;;;;;57.80;32.90;;;;;;;1.69;100.00;99936.63;88057;275;136705;-72
2023/12/13 08:19:05;;;;;;;55.30;31.10;;;;;;;1.71;100.00;99938.19;88524;277;25121;-69
2023/12/13 08:21:08;;;;;;;51.70;29.30;;;;;;;1.72;100.00;99939.09;88425;275;136549;-68
2023/12/13 08:23:11;;;;;;;59.40;32.10;;;;;;;1.72;100.00;99930.91;88424;276;24058;-70
2023/12/13 08:25:13;;;;;;;54.50;31.00;;;;;;;1.74;100.00;99933.10;88372;275;136700;-70
2023/12/13 08:27:16;;;;;;;54.80;31.40;;;;;;;1.80;100.00;99928.08;88294;275;22580;-71
2023/12/13 08:29:18;;;;;;;52.70;32.20;;;;;;;1.84;100.00;99927.36;88181;277;136612;-72
2023/12/13 08:31:19;;;;;;;53.00;31.50;;;;;;;1.83;100.00;99923.95;88179;283;22545;-72
2023/12/13 08:33:28;;;;;;;57.30;35.90;;;;;;;1.86;100.00;99925.27;88182;276;138066;-72
2023/12/13 08:35:30;;;;;;;57.40;32.00;;;;;;;1.88;100.00;99923.83;88314;283;22528;-73
2023/12/13 08:37:32;;;;;;;54.60;30.70;;;;;;;1.88;100.00;99920.84;88172;275;136552;-70
2023/12/13 08:39:35;;;;;;;49.60;28.60;;;;;;;1.87;100.00;99919.53;88194;283;24028;-69
2023/12/13 08:41:36;;;;;;;55.40;31.60;;;;;;;1.85;100.00;99915.38;88183;280;136709;-70
2023/12/13 08:43:39;;;;;;;55.40;29.60;;;;;;;1.83;100.00;99915.33;88257;276;22590;-68
2023/12/13 08:45:41;;;;;;;52.50;33.10;;;;;;;1.81;100.00;99911.83;88021;276;136824;-75
2023/12/13 08:47:43;;;;;;;56.50;32.90;;;;;;;1.82;100.00;99918.54;88220;277;22559;-73
2023/12/13 08:49:46;;;;;;;51.30;31.00;;;;;;;1.85;100.00;99922.69;88164;277;136349;-69
2023/12/13 08:51:49;;;;;;;65.10;36.20;;;;;;;1.90;100.00;99928.71;88308;276;23028;-67
2023/12/13 08:53:54;;;;;;;61.10;33.10;;;;;;;1.93;100.00;99934.16;88209;284;136374;-73
2023/12/13 08:55:56;;;;;;;53.30;31.00;;;;;;;1.95;100.00;99932.25;88223;276;22534;-71
2023/12/13 08:57:58;;;;;;;45.60;28.10;;;;;;;1.87;100.00;99915.00;88145;276;137357;-72
2023/12/13 09:00:01;;;;;;;52.10;27.30;;;;;;;1.95;100.00;99929.61;88068;274;22534;-69
2023/12/13 09:02:11;;;;;;;50.60;29.60;;;;;;;1.95;100.00;99927.70;88199;276;25131;-70
2023/12/13 09:04:14;;;;;;;54.20;31.20;;;;;;;1.95;100.00;99929.84;88127;276;136975;-65
2023/12/13 09:06:18;;;;;;;55.20;31.80;;;;;;;1.95;100.00;99933.16;88232;281;25150;-69
2023/12/13 09:08:21;;;;;;;57.00;32.30;;;;;;;1.95;100.00;99927.90;88350;276;138268;-71
2023/12/13 09:10:23;;;;;;;53.00;30.20;;;;;;;1.94;100.00;99927.09;88288;276;24057;-65
2023/12/13 09:12:25;;;;;;;56.20;32.40;;;;;;;1.93;100.00;99927.51;88254;276;137873;-69
2023/12/13 09:14:27;;;;;;;55.90;31.30;;;;;;;1.92;100.00;99927.47;88301;281;25480;-71
2023/12/13 09:16:29;;;;;;;51.40;30.50;;;;;;;1.91;100.00;99929.30;88273;280;136740;-69
2023/12/13 09:18:32;;;;;;;56.90;32.60;;;;;;;1.91;100.00;99923.37;88256;277;24057;-72
2023/12/13 09:20:34;;;;;;;58.20;32.00;;;;;;;1.87;100.00;99925.61;88181;283;150843;-72
2023/12/13 09:22:37;;;;;;;56.00;32.60;;;;;;;1.90;100.00;99928.02;88761;276;22868;-70
2023/12/13 09:24:40;;;;;;;57.20;33.00;;;;;;;1.92;100.00;99927.50;88130;280;137674;-75
2023/12/13 09:26:42;;;;;;;57.60;33.10;;;;;;;1.94;100.00;99923.02;88228;279;24250;-71
2023/12/13 09:28:44;;;;;;;63.20;33.00;;;;;;;1.99;100.00;99925.95;88106;276;136728;-68
2023/12/13 09:30:47;;;;;;;55.30;31.00;;;;;;;2.03;100.00;99926.24;88211;276;24173;-72